createdAt,value
2022-12-27T00:00:16.133Z,101745.06
2022-12-27T00:10:17.534Z,101749.13
2022-12-27T00:20:18.898Z,101756.53
2022-12-27T00:30:20.239Z,101752.25
2022-12-27T00:40:21.626Z,101757.38
2022-12-27T00:50:23.016Z,101760.53
2022-12-27T01:00:24.629Z,101774.75
2022-12-27T01:10:26.033Z,101795.34
2022-12-27T01:20:27.435Z,101791.84
2022-12-27T01:30:28.791Z,101794.47
2022-12-27T01:40:30.165Z,101815.41
2022-12-27T01:50:38.918Z,101810.41
2022-12-27T02:00:43.827Z,101817.81
2022-12-27T02:10:46.286Z,101841.06
2022-12-27T02:20:56.505Z,101844.44
2022-12-27T02:31:10.766Z,101844.13
2022-12-27T02:41:31.026Z,101845.16
2022-12-27T02:52:19.023Z,101847.00
2022-12-27T03:02:53.951Z,101830.97
2022-12-27T03:13:29.182Z,101841.78
2022-12-27T03:23:49.445Z,101842.06
2022-12-27T03:33:59.656Z,101833.00
2022-12-27T03:44:04.584Z,101856.94
2022-12-27T03:54:27.455Z,101862.59
2022-12-27T04:04:28.997Z,101869.66
2022-12-27T04:14:48.711Z,101857.75
2022-12-27T04:25:08.540Z,101857.69
2022-12-27T04:35:09.893Z,101842.38
2022-12-27T04:45:29.754Z,101863.00
2022-12-27T04:55:31.196Z,101877.41
2022-12-27T05:05:34.274Z,101889.69
2022-12-27T05:15:35.662Z,101894.31
2022-12-27T05:25:44.919Z,101914.94
2022-12-27T05:35:46.353Z,101928.88
2022-12-27T05:45:47.715Z,101934.13
2022-12-27T05:55:59.209Z,101939.00
2022-12-27T06:06:02.319Z,101940.59
2022-12-27T06:16:05.323Z,101961.41
2022-12-27T06:26:09.327Z,101958.59
2022-12-27T06:36:14.226Z,101969.03
2022-12-27T06:46:18.292Z,101953.53
2022-12-27T06:56:22.011Z,101968.88
2022-12-27T07:06:25.352Z,101993.59
2022-12-27T07:16:28.639Z,102002.06
2022-12-27T07:26:30.804Z,102018.16
2022-12-27T07:36:38.174Z,102032.69
2022-12-27T07:46:39.948Z,102042.00
2022-12-27T07:56:41.299Z,102041.25
2022-12-27T08:06:42.707Z,102049.66
2022-12-27T08:16:44.327Z,102054.94
2022-12-27T08:26:45.802Z,102065.50
2022-12-27T08:36:55.588Z,102069.03
2022-12-27T08:46:57.763Z,102064.97
2022-12-27T08:56:59.201Z,102081.66
2022-12-27T09:07:00.573Z,102093.97
2022-12-27T09:17:01.963Z,102093.66
2022-12-27T09:27:03.508Z,102099.34
2022-12-27T09:37:04.887Z,102108.50
2022-12-27T09:47:14.751Z,102100.38
2022-12-27T09:57:33.144Z,102095.59
2022-12-27T10:07:49.134Z,102085.75
2022-12-27T10:18:18.550Z,102083.75
2022-12-27T10:28:28.988Z,102087.38
2022-12-27T10:38:34.975Z,102085.69
2022-12-27T10:48:54.642Z,102090.81
2022-12-27T10:59:11.698Z,102098.34
2022-12-27T11:09:24.257Z,102086.63
2022-12-27T11:19:27.366Z,102084.75
2022-12-27T11:29:32.032Z,102086.03
2022-12-27T11:39:45.719Z,102079.53
2022-12-27T11:50:13.065Z,102087.50
2022-12-27T12:00:27.018Z,102067.41
2022-12-27T12:10:55.311Z,102063.50
2022-12-27T12:21:24.998Z,102077.50
2022-12-27T12:32:12.374Z,102064.44
2022-12-27T12:42:19.830Z,102054.88
2022-12-27T12:52:42.700Z,102039.47
2022-12-27T13:03:03.096Z,102014.78
2022-12-27T13:13:20.465Z,102007.00
2022-12-27T13:24:15.226Z,101984.66
2022-12-27T13:34:25.000Z,101970.31
2022-12-27T13:45:03.403Z,101965.16
2022-12-27T13:55:51.195Z,101955.44
2022-12-27T14:06:01.807Z,101955.28
2022-12-27T14:16:15.791Z,101941.72
2022-12-27T14:26:19.935Z,101920.22
2022-12-27T14:37:01.538Z,101907.34
2022-12-27T14:47:51.558Z,101908.03
2022-12-27T14:58:11.414Z,101899.31
2022-12-27T15:08:41.026Z,101907.78
2022-12-27T15:18:50.076Z,101904.28
2022-12-27T15:29:17.671Z,101894.97
2022-12-27T15:39:34.075Z,101873.66
2022-12-27T15:50:20.099Z,101868.34
2022-12-27T16:00:24.184Z,101876.25
2022-12-27T16:10:47.971Z,101874.56
2022-12-27T16:21:03.414Z,101866.75
2022-12-27T16:31:12.412Z,101856.69
2022-12-27T16:41:41.877Z,101853.06
2022-12-27T16:52:02.092Z,101853.91
2022-12-27T17:02:03.613Z,101848.75
2022-12-27T17:12:13.221Z,101845.34
2022-12-27T17:22:16.791Z,101839.47
2022-12-27T17:32:27.273Z,101831.50
2022-12-27T17:42:58.032Z,101829.94
2022-12-27T17:53:34.423Z,101829.63
2022-12-27T18:03:42.191Z,101813.78
2022-12-27T18:13:52.711Z,101813.69
2022-12-27T18:23:55.206Z,101808.22
2022-12-27T18:34:00.665Z,101794.31
2022-12-27T18:44:02.443Z,101781.81
2022-12-27T18:54:22.217Z,101770.59
2022-12-27T19:04:31.845Z,101768.66
2022-12-27T19:14:43.147Z,101763.91
2022-12-27T19:24:44.957Z,101740.41
2022-12-27T19:34:50.042Z,101724.84
2022-12-27T19:44:51.399Z,101726.41
2022-12-27T19:55:00.206Z,101716.88
2022-12-27T20:05:01.575Z,101709.88
2022-12-27T20:15:03.162Z,101692.41
2022-12-27T20:25:04.997Z,101691.34
2022-12-27T20:35:06.946Z,101674.69
2022-12-27T20:45:09.105Z,101663.34
2022-12-27T20:55:12.426Z,101651.00
2022-12-27T21:05:13.898Z,101646.47
2022-12-27T21:15:15.395Z,101631.09
2022-12-27T21:25:16.774Z,101620.25
2022-12-27T21:35:18.137Z,101625.94
2022-12-27T21:45:19.488Z,101602.84
2022-12-27T21:55:20.844Z,101595.22
2022-12-27T22:05:22.232Z,101582.41
2022-12-27T22:15:23.602Z,101574.66
2022-12-27T22:25:27.286Z,101544.66
2022-12-27T22:35:29.997Z,101533.63
2022-12-27T22:45:31.396Z,101494.31
2022-12-27T22:55:32.733Z,101481.47
2022-12-27T23:05:34.113Z,101458.34
2022-12-27T23:15:35.486Z,101433.09
2022-12-27T23:25:36.898Z,101403.38
2022-12-27T23:35:38.269Z,101387.22
2022-12-27T23:45:39.615Z,101360.81
2022-12-27T23:55:40.966Z,101354.03
